sensor_id;sensor_type;location;lat;lon;timestamp;pressure;altitude;pressure_sealevel;temperature;humidity
29331;BME280;16331;52.528;13.342;2023-05-27T00:02:07;159421.28;;;13.52;100.00
29331;BME280;16331;52.528;13.342;2023-05-27T00:04:33;159447.44;;;13.61;100.00
29331;BME280;16331;52.528;13.342;2023-05-27T00:06:59;159419.91;;;13.51;100.00
29331;BME280;16331;52.528;13.342;2023-05-27T00:09:25;159484.59;;;13.75;100.00
29331;BME280;16331;52.528;13.342;2023-05-27T00:11:51;159452.94;;;13.63;100.00
29331;BME280;16331;52.528;13.342;2023-05-27T00:14:17;159403.41;;;13.45;100.00
29331;BME280;16331;52.528;13.342;2023-05-27T00:16:44;159362.13;;;13.30;100.00
29331;BME280;16331;52.528;13.342;2023-05-27T00:19:10;159348.41;;;13.25;100.00
29331;BME280;16331;52.528;13.342;2023-05-27T00:21:36;159325.03;;;13.17;100.00
29331;BME280;16331;52.528;13.342;2023-05-27T00:24:03;159293.38;;;13.05;100.00
29331;BME280;16331;52.528;13.342;2023-05-27T00:26:29;159351.16;;;13.26;100.00
29331;BME280;16331;52.528;13.342;2023-05-27T00:28:55;159342.91;;;13.23;100.00
29331;BME280;16331;52.528;13.342;2023-05-27T00:31:21;159373.16;;;13.34;100.00
29331;BME280;16331;52.528;13.342;2023-05-27T00:33:48;159340.13;;;13.22;100.00
29331;BME280;16331;52.528;13.342;2023-05-27T00:36:15;159312.66;;;13.12;100.00
29331;BME280;16331;52.528;13.342;2023-05-27T00:38:41;159336.00;;;13.21;100.00
29331;BME280;16331;52.528;13.342;2023-05-27T00:41:08;159363.53;;;13.31;100.00
29331;BME280;16331;52.528;13.342;2023-05-27T00:43:37;159323.63;;;13.16;100.00
29331;BME280;16331;52.528;13.342;2023-05-27T00:46:05;159314.00;;;13.13;100.00
29331;BME280;16331;52.528;13.342;2023-05-27T00:48:32;159257.56;;;12.92;100.00
29331;BME280;16331;52.528;13.342;2023-05-27T00:50:58;159246.59;;;12.88;100.00
29331;BME280;16331;52.528;13.342;2023-05-27T00:53:24;159206.72;;;12.73;100.00
29331;BME280;16331;52.528;13.342;2023-05-27T00:55:53;159224.59;;;12.80;100.00
29331;BME280;16331;52.528;13.342;2023-05-27T00:58:19;159172.38;;;12.61;100.00
29331;BME280;16331;52.528;13.342;2023-05-27T01:00:47;159219.09;;;12.78;100.00
29331;BME280;16331;52.528;13.342;2023-05-27T01:03:14;159221.81;;;12.79;100.00
29331;BME280;16331;52.528;13.342;2023-05-27T01:05:41;159247.94;;;12.88;100.00
29331;BME280;16331;52.528;13.342;2023-05-27T01:08:27;159212.25;;;12.75;100.00
29331;BME280;16331;52.528;13.342;2023-05-27T01:10:55;159180.63;;;12.64;100.00
29331;BME280;16331;52.528;13.342;2023-05-27T01:13:45;159190.25;;;12.67;100.00
29331;BME280;16331;52.528;13.342;2023-05-27T01:16:13;159180.63;;;12.64;100.00
29331;BME280;16331;52.528;13.342;2023-05-27T01:18:44;159188.84;;;12.67;100.00
29331;BME280;16331;52.528;13.342;2023-05-27T01:21:16;159184.75;;;12.65;100.00
29331;BME280;16331;52.528;13.342;2023-05-27T01:23:48;159176.50;;;12.62;100.00
29331;BME280;16331;52.528;13.342;2023-05-27T01:26:16;159136.63;;;12.48;100.00
29331;BME280;16331;52.528;13.342;2023-05-27T01:28:43;159120.16;;;12.42;100.00
29331;BME280;16331;52.528;13.342;2023-05-27T01:31:23;159081.66;;;12.28;100.00
29331;BME280;16331;52.528;13.342;2023-05-27T01:34:00;159098.19;;;12.34;100.00
29331;BME280;16331;52.528;13.342;2023-05-27T01:36:31;159113.25;;;12.39;100.00
29331;BME280;16331;52.528;13.342;2023-05-27T01:39:00;159095.38;;;12.33;100.00
29331;BME280;16331;52.528;13.342;2023-05-27T01:41:29;159114.66;;;12.40;100.00
29331;BME280;16331;52.528;13.342;2023-05-27T01:43:58;159096.78;;;12.33;100.00
29331;BME280;16331;52.528;13.342;2023-05-27T01:46:24;159084.44;;;12.29;100.00
29331;BME280;16331;52.528;13.342;2023-05-27T01:48:50;159040.47;;;12.13;100.00
29331;BME280;16331;52.528;13.342;2023-05-27T01:51:16;159050.09;;;12.16;100.00
29331;BME280;16331;52.528;13.342;2023-05-27T01:53:42;159131.13;;;12.46;100.00
29331;BME280;16331;52.528;13.342;2023-05-27T01:56:08;159048.69;;;12.16;100.00
29331;BME280;16331;52.528;13.342;2023-05-27T01:58:35;159044.56;;;12.14;100.00
29331;BME280;16331;52.528;13.342;2023-05-27T02:01:01;159018.47;;;12.05;100.00
29331;BME280;16331;52.528;13.342;2023-05-27T02:03:27;159040.47;;;12.13;100.00
29331;BME280;16331;52.528;13.342;2023-05-27T02:05:53;159036.34;;;12.11;100.00
29331;BME280;16331;52.528;13.342;2023-05-27T02:08:19;159062.44;;;12.21;100.00
29331;BME280;16331;52.528;13.342;2023-05-27T02:10:45;159095.38;;;12.33;100.00
29331;BME280;16331;52.528;13.342;2023-05-27T02:13:12;159076.19;;;12.26;100.00
29331;BME280;16331;52.528;13.342;2023-05-27T02:15:38;159033.56;;;12.10;100.00
29331;BME280;16331;52.528;13.342;2023-05-27T02:18:04;159069.28;;;12.23;100.00
29331;BME280;16331;52.528;13.342;2023-05-27T02:20:31;159094.06;;;12.32;100.00
29331;BME280;16331;52.528;13.342;2023-05-27T02:22:57;159015.69;;;12.04;100.00
29331;BME280;16331;52.528;13.342;2023-05-27T02:25:24;159010.25;;;12.02;100.00
29331;BME280;16331;52.528;13.342;2023-05-27T02:27:50;159012.97;;;12.03;100.00
29331;BME280;16331;52.528;13.342;2023-05-27T02:30:18;159039.06;;;12.12;100.00
29331;BME280;16331;52.528;13.342;2023-05-27T02:32:44;159037.69;;;12.12;100.00
29331;BME280;16331;52.528;13.342;2023-05-27T02:35:13;159040.47;;;12.13;100.00
29331;BME280;16331;52.528;13.342;2023-05-27T02:37:42;159041.84;;;12.13;100.00
29331;BME280;16331;52.528;13.342;2023-05-27T02:40:09;158999.22;;;11.98;100.00
29331;BME280;16331;52.528;13.342;2023-05-27T02:42:35;159034.94;;;12.11;100.00
29331;BME280;16331;52.528;13.342;2023-05-27T02:45:01;158986.88;;;11.93;100.00
29331;BME280;16331;52.528;13.342;2023-05-27T02:47:28;158920.94;;;11.69;100.00
29331;BME280;16331;52.528;13.342;2023-05-27T02:49:54;158920.94;;;11.69;100.00
29331;BME280;16331;52.528;13.342;2023-05-27T02:52:20;158993.72;;;11.96;100.00
29331;BME280;16331;52.528;13.342;2023-05-27T02:54:47;158974.53;;;11.89;100.00
29331;BME280;16331;52.528;13.342;2023-05-27T02:57:13;158996.50;;;11.97;100.00
29331;BME280;16331;52.528;13.342;2023-05-27T02:59:39;158964.91;;;11.85;100.00
29331;BME280;16331;52.528;13.342;2023-05-27T03:02:05;158955.28;;;11.82;100.00
29331;BME280;16331;52.528;13.342;2023-05-27T03:04:32;158916.81;;;11.68;100.00
29331;BME280;16331;52.528;13.342;2023-05-27T03:06:58;158993.72;;;11.96;100.00
29331;BME280;16331;52.528;13.342;2023-05-27T03:09:25;158966.28;;;11.86;100.00
29331;BME280;16331;52.528;13.342;2023-05-27T03:11:51;158975.91;;;11.89;100.00
29331;BME280;16331;52.528;13.342;2023-05-27T03:14:17;158963.50;;;11.85;100.00
29331;BME280;16331;52.528;13.342;2023-05-27T03:16:44;158956.66;;;11.82;100.00
29331;BME280;16331;52.528;13.342;2023-05-27T03:19:11;158955.28;;;11.82;100.00
29331;BME280;16331;52.528;13.342;2023-05-27T03:21:37;158919.56;;;11.68;100.00
29331;BME280;16331;52.528;13.342;2023-05-27T03:24:03;158914.09;;;11.67;100.00
29331;BME280;16331;52.528;13.342;2023-05-27T03:26:29;158922.34;;;11.70;100.00
29331;BME280;16331;52.528;13.342;2023-05-27T03:28:55;158879.72;;;11.54;100.00
29331;BME280;16331;52.528;13.342;2023-05-27T03:31:23;158931.97;;;11.73;100.00
29331;BME280;16331;52.528;13.342;2023-05-27T03:33:51;158971.78;;;11.88;100.00
29331;BME280;16331;52.528;13.342;2023-05-27T03:36:17;158955.28;;;11.82;100.00
29331;BME280;16331;52.528;13.342;2023-05-27T03:38:44;158956.66;;;11.82;100.00
29331;BME280;16331;52.528;13.342;2023-05-27T03:41:10;158887.97;;;11.57;100.00
29331;BME280;16331;52.528;13.342;2023-05-27T03:43:36;158919.56;;;11.68;100.00
29331;BME280;16331;52.528;13.342;2023-05-27T03:46:03;158916.81;;;11.68;100.00
29331;BME280;16331;52.528;13.342;2023-05-27T03:48:29;158879.72;;;11.54;100.00
29331;BME280;16331;52.528;13.342;2023-05-27T03:50:55;158916.81;;;11.68;100.00
29331;BME280;16331;52.528;13.342;2023-05-27T03:53:22;158903.03;;;11.62;100.00
29331;BME280;16331;52.528;13.342;2023-05-27T03:55:48;158908.59;;;11.64;100.00
29331;BME280;16331;52.528;13.342;2023-05-27T03:58:14;158944.31;;;11.78;100.00
29331;BME280;16331;52.528;13.342;2023-05-27T04:00:45;158941.53;;;11.77;100.00
29331;BME280;16331;52.528;13.342;2023-05-27T04:03:17;158926.44;;;11.71;100.00
29331;BME280;16331;52.528;13.342;2023-05-27T04:05:43;158925.06;;;11.71;100.00
29331;BME280;16331;52.528;13.342;2023-05-27T04:08:09;158922.34;;;11.70;100.00
29331;BME280;16331;52.528;13.342;2023-05-27T04:10:35;158985.47;;;11.93;100.00
29331;BME280;16331;52.528;13.342;2023-05-27T04:13:02;158993.72;;;11.96;100.00
29331;BME280;16331;52.528;13.342;2023-05-27T04:15:28;158966.28;;;11.86;100.00
29331;BME280;16331;52.528;13.342;2023-05-27T04:17:55;158947.03;;;11.79;100.00
29331;BME280;16331;52.528;13.342;2023-05-27T04:20:21;159014.38;;;12.03;100.00
29331;BME280;16331;52.528;13.342;2023-05-27T04:22:48;159010.25;;;12.02;100.00
29331;BME280;16331;52.528;13.342;2023-05-27T04:25:14;158966.28;;;11.86;100.00
29331;BME280;16331;52.528;13.342;2023-05-27T04:27:40;158971.78;;;11.88;100.00
29331;BME280;16331;52.528;13.342;2023-05-27T04:30:07;159100.91;;;12.35;100.00
29331;BME280;16331;52.528;13.342;2023-05-27T04:32:33;159153.13;;;12.54;100.00
29331;BME280;16331;52.528;13.342;2023-05-27T04:35:05;159144.88;;;12.51;100.00
29331;BME280;16331;52.528;13.342;2023-05-27T04:37:33;159085.75;;;12.29;100.00
29331;BME280;16331;52.528;13.342;2023-05-27T04:39:59;159131.13;;;12.46;100.00
29331;BME280;16331;52.528;13.342;2023-05-27T04:42:26;159191.59;;;12.68;100.00
29331;BME280;16331;52.528;13.342;2023-05-27T04:44:52;159166.88;;;12.59;100.00
29331;BME280;16331;52.528;13.342;2023-05-27T04:47:18;159087.16;;;12.30;100.00
29331;BME280;16331;52.528;13.342;2023-05-27T04:49:44;159184.75;;;12.65;100.00
29331;BME280;16331;52.528;13.342;2023-05-27T04:52:12;159199.84;;;12.71;100.00
29331;BME280;16331;52.528;13.342;2023-05-27T04:54:38;159194.38;;;12.69;100.00
29331;BME280;16331;52.528;13.342;2023-05-27T04:57:04;159281.03;;;13.00;100.00
29331;BME280;16331;52.528;13.342;2023-05-27T04:59:32;159220.47;;;12.78;100.00
29331;BME280;16331;52.528;13.342;2023-05-27T05:02:16;159253.44;;;12.90;100.00
29331;BME280;16331;52.528;13.342;2023-05-27T05:04:51;159281.03;;;13.00;100.00
29331;BME280;16331;52.528;13.342;2023-05-27T05:07:17;159281.03;;;13.00;100.00
29331;BME280;16331;52.528;13.342;2023-05-27T05:09:45;159356.66;;;13.28;100.00
29331;BME280;16331;52.528;13.342;2023-05-27T05:12:11;159473.56;;;13.71;100.00
29331;BME280;16331;52.528;13.342;2023-05-27T05:14:37;159485.94;;;13.75;100.00
29331;BME280;16331;52.528;13.342;2023-05-27T05:17:04;159446.03;;;13.61;100.00
29331;BME280;16331;52.528;13.342;2023-05-27T05:19:30;159469.44;;;13.69;100.00
29331;BME280;16331;52.528;13.342;2023-05-27T05:21:56;159502.44;;;13.81;100.00
29331;BME280;16331;52.528;13.342;2023-05-27T05:24:22;159480.47;;;13.73;100.00
29331;BME280;16331;52.528;13.342;2023-05-27T05:26:49;159450.16;;;13.62;100.00
29331;BME280;16331;52.528;13.342;2023-05-27T05:29:15;159408.91;;;13.47;100.00
29331;BME280;16331;52.528;13.342;2023-05-27T05:31:41;159465.31;;;13.68;100.00
29331;BME280;16331;52.528;13.342;2023-05-27T05:34:08;159549.25;;;13.98;100.00
29331;BME280;16331;52.528;13.342;2023-05-27T05:36:34;159538.22;;;13.94;100.00
29331;BME280;16331;52.528;13.342;2023-05-27T05:39:00;159571.28;;;14.06;100.00
29331;BME280;16331;52.528;13.342;2023-05-27T05:41:26;159575.41;;;14.08;100.00
29331;BME280;16331;52.528;13.342;2023-05-27T05:43:52;159550.66;;;13.99;100.00
29331;BME280;16331;52.528;13.342;2023-05-27T05:46:18;159568.47;;;14.05;100.00
29331;BME280;16331;52.528;13.342;2023-05-27T05:48:45;159587.78;;;14.12;100.00
29331;BME280;16331;52.528;13.342;2023-05-27T05:51:11;159590.50;;;14.13;100.00
29331;BME280;16331;52.528;13.342;2023-05-27T05:53:37;159608.41;;;14.20;100.00
29331;BME280;16331;52.528;13.342;2023-05-27T05:56:04;159609.78;;;14.20;100.00
29331;BME280;16331;52.528;13.342;2023-05-27T05:58:30;159648.38;;;14.34;100.00
29331;BME280;16331;52.528;13.342;2023-05-27T06:00:56;159736.50;;;14.67;100.00
29331;BME280;16331;52.528;13.342;2023-05-27T06:03:23;159783.34;;;14.84;100.00
29331;BME280;16331;52.528;13.342;2023-05-27T06:05:49;159952.81;;;15.45;100.00
29331;BME280;16331;52.528;13.342;2023-05-27T06:08:15;160191.28;;;16.32;100.00
29331;BME280;16331;52.528;13.342;2023-05-27T06:10:41;160247.88;;;16.53;100.00
29331;BME280;16331;52.528;13.342;2023-05-27T06:13:09;160069.94;;;15.88;100.00
29331;BME280;16331;52.528;13.342;2023-05-27T06:15:37;160017.56;;;15.69;100.00
29331;BME280;16331;52.528;13.342;2023-05-27T06:18:04;159998.28;;;15.62;100.00
29331;BME280;16331;52.528;13.342;2023-05-27T06:20:31;159967.97;;;15.51;100.00
29331;BME280;16331;52.528;13.342;2023-05-27T06:22:57;159921.06;;;15.34;100.00
29331;BME280;16331;52.528;13.342;2023-05-27T06:25:23;159991.38;;;15.59;100.00
29331;BME280;16331;52.528;13.342;2023-05-27T06:27:49;159991.38;;;15.59;100.00
29331;BME280;16331;52.528;13.342;2023-05-27T06:30:15;160200.94;;;16.36;96.58
29331;BME280;16331;52.528;13.342;2023-05-27T06:32:41;160286.47;;;16.67;91.07
29331;BME280;16331;52.528;13.342;2023-05-27T06:35:07;160290.59;;;16.68;89.90
29331;BME280;16331;52.528;13.342;2023-05-27T06:37:34;160205.06;;;16.37;90.59
29331;BME280;16331;52.528;13.342;2023-05-27T06:40:00;160245.13;;;16.52;87.00
29331;BME280;16331;52.528;13.342;2023-05-27T06:42:26;160294.75;;;16.70;80.77
29331;BME280;16331;52.528;13.342;2023-05-27T06:44:52;160385.81;;;17.03;72.36
29331;BME280;16331;52.528;13.342;2023-05-27T06:47:18;160327.88;;;16.82;70.49
29331;BME280;16331;52.528;13.342;2023-05-27T06:49:45;160280.94;;;16.65;69.41
29331;BME280;16331;52.528;13.342;2023-05-27T06:52:11;160314.06;;;16.77;67.53
29331;BME280;16331;52.528;13.342;2023-05-27T06:54:37;160229.94;;;16.46;70.34
29331;BME280;16331;52.528;13.342;2023-05-27T06:57:04;160334.75;;;16.84;67.39
29331;BME280;16331;52.528;13.342;2023-05-27T06:59:30;160453.41;;;17.27;64.79
29331;BME280;16331;52.528;13.342;2023-05-27T07:01:56;160523.84;;;17.53;61.53
29331;BME280;16331;52.528;13.342;2023-05-27T07:04:23;160428.59;;;17.18;60.33
29331;BME280;16331;52.528;13.342;2023-05-27T07:06:49;160417.53;;;17.14;59.88
29331;BME280;16331;52.528;13.342;2023-05-27T07:09:15;160492.03;;;17.42;57.66
29331;BME280;16331;52.528;13.342;2023-05-27T07:11:42;160481.03;;;17.38;57.42
29331;BME280;16331;52.528;13.342;2023-05-27T07:14:08;160591.50;;;17.78;55.28
29331;BME280;16331;52.528;13.342;2023-05-27T07:16:37;160478.28;;;17.37;54.79
29331;BME280;16331;52.528;13.342;2023-05-27T07:19:03;160413.38;;;17.13;53.92
29331;BME280;16331;52.528;13.342;2023-05-27T07:21:29;160468.59;;;17.33;54.23
29331;BME280;16331;52.528;13.342;2023-05-27T07:23:56;160514.16;;;17.50;55.57
29331;BME280;16331;52.528;13.342;2023-05-27T07:26:24;160450.66;;;17.26;53.27
29331;BME280;16331;52.528;13.342;2023-05-27T07:28:51;160558.34;;;17.66;53.42
29331;BME280;16331;52.528;13.342;2023-05-27T07:31:18;160557.00;;;17.65;53.66
29331;BME280;16331;52.528;13.342;2023-05-27T07:33:44;160497.56;;;17.44;51.11
29331;BME280;16331;52.528;13.342;2023-05-27T07:36:10;160541.78;;;17.60;50.95
29331;BME280;16331;52.528;13.342;2023-05-27T07:38:36;160552.88;;;17.64;51.77
29331;BME280;16331;52.528;13.342;2023-05-27T07:41:02;160628.75;;;17.91;52.47
29331;BME280;16331;52.528;13.342;2023-05-27T07:43:29;160818.03;;;18.60;51.18
29331;BME280;16331;52.528;13.342;2023-05-27T07:45:55;160754.47;;;18.37;51.77
29331;BME280;16331;52.528;13.342;2023-05-27T07:48:21;160690.91;;;18.14;52.78
29331;BME280;16331;52.528;13.342;2023-05-27T07:50:47;160724.06;;;18.26;52.37
29331;BME280;16331;52.528;13.342;2023-05-27T07:53:14;160757.19;;;18.38;52.31
29331;BME280;16331;52.528;13.342;2023-05-27T07:55:40;160863.63;;;18.77;52.72
29331;BME280;16331;52.528;13.342;2023-05-27T07:58:08;160773.81;;;18.44;55.33
29331;BME280;16331;52.528;13.342;2023-05-27T08:00:34;160853.97;;;18.73;53.70
29331;BME280;16331;52.528;13.342;2023-05-27T08:03:00;160780.75;;;18.46;53.31
29331;BME280;16331;52.528;13.342;2023-05-27T08:05:26;160931.38;;;19.01;49.90
29331;BME280;16331;52.528;13.342;2023-05-27T08:07:52;160907.84;;;18.93;47.57
29331;BME280;16331;52.528;13.342;2023-05-27T08:10:18;160945.19;;;19.06;47.68
29331;BME280;16331;52.528;13.342;2023-05-27T08:12:44;160992.19;;;19.23;47.17
29331;BME280;16331;52.528;13.342;2023-05-27T08:15:11;160988.03;;;19.22;46.57
29331;BME280;16331;52.528;13.342;2023-05-27T08:17:38;160859.50;;;18.75;45.49
29331;BME280;16331;52.528;13.342;2023-05-27T08:20:05;160865.03;;;18.77;45.52
29331;BME280;16331;52.528;13.342;2023-05-27T08:22:32;161029.53;;;19.37;45.38
29331;BME280;16331;52.528;13.342;2023-05-27T08:24:59;160896.84;;;18.89;44.78
29331;BME280;16331;52.528;13.342;2023-05-27T08:27:52;161008.81;;;19.29;43.75
29331;BME280;16331;52.528;13.342;2023-05-27T08:30:19;160958.97;;;19.11;44.03
29331;BME280;16331;52.528;13.342;2023-05-27T08:32:45;160822.22;;;18.61;45.29
29331;BME280;16331;52.528;13.342;2023-05-27T08:35:12;160880.22;;;18.83;43.27
29331;BME280;16331;52.528;13.342;2023-05-27T08:37:40;160900.97;;;18.90;43.22
29331;BME280;16331;52.528;13.342;2023-05-27T08:40:17;160795.91;;;18.52;43.78
29331;BME280;16331;52.528;13.342;2023-05-27T08:42:45;160815.28;;;18.59;44.21
29331;BME280;16331;52.528;13.342;2023-05-27T08:45:12;160963.16;;;19.13;44.04
29331;BME280;16331;52.528;13.342;2023-05-27T08:47:38;160981.09;;;19.19;43.57
29331;BME280;16331;52.528;13.342;2023-05-27T08:50:06;160964.53;;;19.13;44.05
29331;BME280;16331;52.528;13.342;2023-05-27T08:52:33;160945.19;;;19.06;44.30
29331;BME280;16331;52.528;13.342;2023-05-27T08:55:00;161025.38;;;19.35;43.81
29331;BME280;16331;52.528;13.342;2023-05-27T08:57:31;161080.72;;;19.55;42.49
29331;BME280;16331;52.528;13.342;2023-05-27T08:59:59;161028.19;;;19.36;42.44
29331;BME280;16331;52.528;13.342;2023-05-27T09:02:26;161021.22;;;19.34;43.00
29331;BME280;16331;52.528;13.342;2023-05-27T09:04:53;161060.00;;;19.48;42.17
29331;BME280;16331;52.528;13.342;2023-05-27T09:07:22;161116.66;;;19.68;41.54
29331;BME280;16331;52.528;13.342;2023-05-27T09:09:58;161071.03;;;19.52;41.99
29331;BME280;16331;52.528;13.342;2023-05-27T09:12:26;161007.41;;;19.29;41.49
29331;BME280;16331;52.528;13.342;2023-05-27T09:14:54;161080.72;;;19.55;40.35
29331;BME280;16331;52.528;13.342;2023-05-27T09:17:23;161086.25;;;19.57;38.94
29331;BME280;16331;52.528;13.342;2023-05-27T09:19:54;161044.75;;;19.42;39.19
29331;BME280;16331;52.528;13.342;2023-05-27T09:22:25;160876.06;;;18.81;39.97
29331;BME280;16331;52.528;13.342;2023-05-27T09:24:55;161008.81;;;19.29;39.97
29331;BME280;16331;52.528;13.342;2023-05-27T09:27:29;160971.47;;;19.16;39.43
29331;BME280;16331;52.528;13.342;2023-05-27T09:29:56;161029.53;;;19.37;38.88
29331;BME280;16331;52.528;13.342;2023-05-27T09:32:35;161028.19;;;19.36;38.04
29331;BME280;16331;52.528;13.342;2023-05-27T09:35:02;161054.44;;;19.46;37.95
29331;BME280;16331;52.528;13.342;2023-05-27T09:37:34;160921.69;;;18.98;37.83
29331;BME280;16331;52.528;13.342;2023-05-27T09:40:09;161105.56;;;19.64;37.56
29331;BME280;16331;52.528;13.342;2023-05-27T09:42:43;161115.28;;;19.68;37.52
29331;BME280;16331;52.528;13.342;2023-05-27T09:45:13;161037.88;;;19.40;37.22
29331;BME280;16331;52.528;13.342;2023-05-27T09:47:41;161140.13;;;19.77;38.04
29331;BME280;16331;52.528;13.342;2023-05-27T09:50:08;161144.28;;;19.78;38.16
29331;BME280;16331;52.528;13.342;2023-05-27T09:52:39;161249.50;;;20.17;40.56
29331;BME280;16331;52.528;13.342;2023-05-27T09:55:09;161195.50;;;19.97;38.58
29331;BME280;16331;52.528;13.342;2023-05-27T09:57:38;161184.41;;;19.93;38.28
29331;BME280;16331;52.528;13.342;2023-05-27T10:00:05;161264.69;;;20.22;37.72
29331;BME280;16331;52.528;13.342;2023-05-27T10:02:44;161249.50;;;20.17;41.40
29331;BME280;16331;52.528;13.342;2023-05-27T10:05:13;161371.25;;;20.61;38.90
29331;BME280;16331;52.528;13.342;2023-05-27T10:07:44;161292.38;;;20.32;38.84
29331;BME280;16331;52.528;13.342;2023-05-27T10:10:14;161432.13;;;20.83;37.08
29331;BME280;16331;52.528;13.342;2023-05-27T10:12:41;161311.75;;;20.39;37.25
29331;BME280;16331;52.528;13.342;2023-05-27T10:15:09;161333.91;;;20.47;37.70
29331;BME280;16331;52.528;13.342;2023-05-27T10:17:55;161373.97;;;20.62;36.53
29331;BME280;16331;52.528;13.342;2023-05-27T10:20:31;161412.78;;;20.76;36.45
29331;BME280;16331;52.528;13.342;2023-05-27T10:23:16;161293.78;;;20.33;36.86
29331;BME280;16331;52.528;13.342;2023-05-27T10:25:52;161430.78;;;20.82;36.70
29331;BME280;16331;52.528;13.342;2023-05-27T10:28:36;161423.81;;;20.80;36.26
29331;BME280;16331;52.528;13.342;2023-05-27T10:31:10;161488.91;;;21.03;35.50
29331;BME280;16331;52.528;13.342;2023-05-27T10:33:47;161390.63;;;20.68;34.85
29331;BME280;16331;52.528;13.342;2023-05-27T10:36:16;161371.25;;;20.61;36.47
29331;BME280;16331;52.528;13.342;2023-05-27T10:38:54;161565.09;;;21.31;35.43
29331;BME280;16331;52.528;13.342;2023-05-27T10:41:20;161650.97;;;21.62;34.47
29331;BME280;16331;52.528;13.342;2023-05-27T10:43:59;161486.16;;;21.02;34.61
29331;BME280;16331;52.528;13.342;2023-05-27T10:46:26;161504.16;;;21.09;34.01
29331;BME280;16331;52.528;13.342;2023-05-27T10:48:52;161459.81;;;20.93;33.65
29331;BME280;16331;52.528;13.342;2023-05-27T10:51:18;161523.56;;;21.16;34.30
29331;BME280;16331;52.528;13.342;2023-05-27T10:53:46;161559.53;;;21.29;34.53
29331;BME280;16331;52.528;13.342;2023-05-27T10:56:13;161675.88;;;21.71;34.48
29331;BME280;16331;52.528;13.342;2023-05-27T10:58:39;161858.81;;;22.37;34.56
29331;BME280;16331;52.528;13.342;2023-05-27T11:01:10;161907.38;;;22.55;31.87
29331;BME280;16331;52.528;13.342;2023-05-27T11:03:45;162144.50;;;23.41;31.74
29331;BME280;16331;52.528;13.342;2023-05-27T11:06:12;162462.31;;;24.56;29.86
29331;BME280;16331;52.528;13.342;2023-05-27T11:08:42;162098.66;;;23.24;30.90
29331;BME280;16331;52.528;13.342;2023-05-27T11:11:10;161946.19;;;22.69;31.66
29331;BME280;16331;52.528;13.342;2023-05-27T11:13:44;162734.63;;;25.54;28.56
29331;BME280;16331;52.528;13.342;2023-05-27T11:16:12;162665.13;;;25.29;28.56
29331;BME280;16331;52.528;13.342;2023-05-27T11:18:47;162777.69;;;25.70;27.54
29331;BME280;16331;52.528;13.342;2023-05-27T11:21:15;162686.00;;;25.36;28.32
29331;BME280;16331;52.528;13.342;2023-05-27T11:23:46;162865.25;;;26.01;27.71
29331;BME280;16331;52.528;13.342;2023-05-27T11:26:18;162861.03;;;26.00;28.03
29331;BME280;16331;52.528;13.342;2023-05-27T11:28:53;162972.31;;;26.40;28.04
29331;BME280;16331;52.528;13.342;2023-05-27T11:31:21;163061.34;;;26.72;27.45
29331;BME280;16331;52.528;13.342;2023-05-27T11:33:50;163239.44;;;27.36;26.33
29331;BME280;16331;52.528;13.342;2023-05-27T11:36:17;163206.00;;;27.24;26.16
29331;BME280;16331;52.528;13.342;2023-05-27T11:39:01;163270.03;;;27.47;26.30
29331;BME280;16331;52.528;13.342;2023-05-27T11:41:32;163456.56;;;28.14;25.20
29331;BME280;16331;52.528;13.342;2023-05-27T11:44:01;163544.25;;;28.46;24.71
29331;BME280;16331;52.528;13.342;2023-05-27T11:46:39;163459.38;;;28.15;24.97
29331;BME280;16331;52.528;13.342;2023-05-27T11:49:17;163420.34;;;28.01;25.68
29331;BME280;16331;52.528;13.342;2023-05-27T11:51:46;163117.00;;;26.92;26.75
29331;BME280;16331;52.528;13.342;2023-05-27T11:54:27;162941.72;;;26.29;27.47
29331;BME280;16331;52.528;13.342;2023-05-27T11:56:56;162830.47;;;25.89;28.46
29331;BME280;16331;52.528;13.342;2023-05-27T11:59:23;163335.41;;;27.71;27.19
29331;BME280;16331;52.528;13.342;2023-05-27T12:01:50;163229.69;;;27.33;26.43
29331;BME280;16331;52.528;13.342;2023-05-27T12:04:17;163186.50;;;27.17;27.19
29331;BME280;16331;52.528;13.342;2023-05-27T12:06:45;162686.00;;;25.36;29.16
29331;BME280;16331;52.528;13.342;2023-05-27T12:09:12;163407.84;;;27.97;26.46
29331;BME280;16331;52.528;13.342;2023-05-27T12:11:38;163517.78;;;28.36;26.06
29331;BME280;16331;52.528;13.342;2023-05-27T12:14:05;163278.38;;;27.50;26.35
29331;BME280;16331;52.528;13.342;2023-05-27T12:16:34;163683.56;;;28.96;25.95
29331;BME280;16331;52.528;13.342;2023-05-27T12:19:00;163428.69;;;28.04;26.06
29331;BME280;16331;52.528;13.342;2023-05-27T12:21:26;163477.47;;;28.22;26.69
29331;BME280;16331;52.528;13.342;2023-05-27T12:23:53;163616.72;;;28.72;25.62
29331;BME280;16331;52.528;13.342;2023-05-27T12:26:22;163334.06;;;27.70;26.90
29331;BME280;16331;52.528;13.342;2023-05-27T12:28:48;163849.41;;;29.56;25.28
29331;BME280;16331;52.528;13.342;2023-05-27T12:31:17;163797.84;;;29.37;25.67
29331;BME280;16331;52.528;13.342;2023-05-27T12:33:47;163857.78;;;29.59;25.12
29331;BME280;16331;52.528;13.342;2023-05-27T12:36:16;164048.84;;;30.28;25.04
29331;BME280;16331;52.528;13.342;2023-05-27T12:38:43;163909.38;;;29.78;24.73
29331;BME280;16331;52.528;13.342;2023-05-27T12:41:09;163994.41;;;30.08;24.71